createdAt,value
2019-03-01T00:01:01.862Z,69.01
2019-03-01T00:03:33.382Z,69.18
2019-03-01T00:06:22.116Z,69.31
2019-03-01T00:09:21.412Z,69.62
2019-03-01T00:12:12.007Z,69.65
2019-03-01T00:15:10.972Z,69.71
2019-03-01T00:17:44.897Z,69.88
2019-03-01T00:20:37.000Z,69.76
2019-03-01T00:23:16.183Z,69.83
2019-03-01T00:26:18.623Z,70.13
2019-03-01T00:29:04.311Z,69.93
2019-03-01T00:31:43.982Z,70.20
2019-03-01T00:34:26.784Z,69.76
2019-03-01T00:37:09.520Z,69.99
2019-03-01T00:39:45.987Z,69.72
2019-03-01T00:42:48.873Z,69.85
2019-03-01T00:45:19.608Z,69.78
2019-03-01T00:47:50.260Z,70.00
2019-03-01T00:50:20.238Z,69.78
2019-03-01T00:52:51.682Z,69.48
2019-03-01T00:55:22.540Z,69.41
2019-03-01T00:57:53.293Z,69.24
2019-03-01T01:00:36.219Z,69.14
2019-03-01T01:03:07.075Z,69.20
2019-03-01T01:05:37.979Z,69.09
2019-03-01T01:08:08.785Z,68.95
2019-03-01T01:10:39.438Z,69.00
2019-03-01T01:13:10.295Z,69.04
2019-03-01T01:15:41.047Z,68.75
2019-03-01T01:18:11.680Z,68.71
2019-03-01T01:20:41.660Z,68.64
2019-03-01T01:23:12.186Z,68.47
2019-03-01T01:25:42.941Z,68.25
2019-03-01T01:28:13.573Z,68.24
2019-03-01T01:30:44.328Z,67.61
2019-03-01T01:33:15.198Z,67.52
2019-03-01T01:35:45.957Z,67.79
2019-03-01T01:38:16.604Z,67.26
2019-03-01T01:40:47.467Z,67.10
2019-03-01T01:43:18.216Z,67.28
2019-03-01T01:45:48.969Z,66.62
2019-03-01T01:48:19.826Z,65.76
2019-03-01T01:50:50.563Z,64.50
2019-03-01T01:53:22.340Z,63.53
2019-03-01T01:55:53.216Z,63.34
2019-03-01T01:58:23.866Z,63.07
2019-03-01T02:00:54.602Z,62.95
2019-03-01T02:03:25.473Z,63.12
2019-03-01T02:05:56.023Z,63.18
2019-03-01T02:08:25.984Z,63.46
2019-03-01T02:10:56.391Z,63.75
2019-03-01T02:13:26.469Z,63.87
2019-03-01T02:15:56.992Z,63.83
2019-03-01T02:18:27.748Z,63.92
2019-03-01T02:20:58.505Z,64.43
2019-03-01T02:23:29.036Z,64.37
2019-03-01T02:25:59.892Z,64.24
2019-03-01T02:28:30.647Z,64.39
2019-03-01T02:31:04.486Z,64.81
2019-03-01T02:33:35.139Z,64.81
2019-03-01T02:36:05.975Z,64.85
2019-03-01T02:38:36.746Z,64.81
2019-03-01T02:41:07.501Z,64.80
2019-03-01T02:43:38.047Z,64.71
2019-03-01T02:46:08.904Z,64.92
2019-03-01T02:48:39.762Z,64.89
2019-03-01T02:51:10.502Z,65.12
2019-03-01T02:53:42.088Z,65.39
2019-03-01T02:56:12.636Z,65.71
2019-03-01T02:58:43.168Z,66.02
2019-03-01T03:01:14.058Z,66.52
2019-03-01T03:03:44.898Z,66.81
2019-03-01T03:06:23.221Z,66.55
2019-03-01T03:08:53.873Z,66.24
2019-03-01T03:11:24.717Z,66.51
2019-03-01T03:13:55.364Z,66.71
2019-03-01T03:16:26.424Z,66.46
2019-03-01T03:18:56.973Z,66.46
2019-03-01T03:21:27.851Z,66.56
2019-03-01T03:23:58.483Z,66.74
2019-03-01T03:26:29.254Z,66.58
2019-03-01T03:29:00.113Z,66.45
2019-03-01T03:31:30.977Z,66.30
2019-03-01T03:34:01.600Z,66.43
2019-03-01T03:36:31.681Z,66.24
2019-03-01T03:39:02.204Z,66.23
2019-03-01T03:41:32.854Z,66.34
2019-03-01T03:44:03.725Z,66.34
2019-03-01T03:46:34.575Z,66.28
2019-03-01T03:49:05.322Z,66.01
2019-03-01T03:51:35.956Z,66.08
2019-03-01T03:54:07.734Z,65.86
2019-03-01T03:56:38.689Z,66.43
2019-03-01T03:59:09.466Z,67.05
2019-03-01T04:01:40.226Z,68.04
2019-03-01T04:04:10.967Z,69.12
2019-03-01T04:06:41.827Z,69.94
2019-03-01T04:09:12.477Z,70.64
2019-03-01T04:11:43.231Z,70.35
2019-03-01T04:14:13.880Z,71.05
2019-03-01T04:16:44.723Z,71.30
2019-03-01T04:19:15.501Z,71.89
2019-03-01T04:21:46.233Z,72.00
2019-03-01T04:24:17.104Z,72.51
2019-03-01T04:26:47.958Z,72.24
2019-03-01T04:29:18.305Z,72.58
2019-03-01T04:31:49.058Z,72.80
2019-03-01T04:34:19.708Z,73.21
2019-03-01T04:36:50.552Z,73.29
2019-03-01T04:39:21.423Z,73.15
2019-03-01T04:41:52.175Z,73.59
2019-03-01T04:44:22.827Z,72.80
2019-03-01T04:46:53.665Z,73.00
2019-03-01T04:49:24.316Z,73.05
2019-03-01T04:51:55.086Z,72.98
2019-03-01T04:54:26.660Z,72.79
2019-03-01T04:56:57.526Z,72.03
2019-03-01T04:59:28.371Z,72.37
2019-03-01T05:01:59.230Z,71.62
2019-03-01T05:04:29.982Z,71.73
2019-03-01T05:07:00.616Z,72.08
2019-03-01T05:09:31.375Z,70.87
2019-03-01T05:12:02.226Z,70.43
2019-03-01T05:14:32.998Z,70.80
2019-03-01T05:17:03.655Z,70.01
2019-03-01T05:19:34.386Z,69.92
2019-03-01T05:22:05.259Z,69.85
2019-03-01T05:24:35.895Z,70.21
2019-03-01T05:27:05.864Z,70.27
2019-03-01T05:29:36.394Z,69.78
2019-03-01T05:32:07.031Z,68.72
2019-03-01T05:34:37.011Z,68.65
2019-03-01T05:37:07.536Z,67.59
2019-03-01T05:39:38.183Z,66.93
2019-03-01T05:42:09.041Z,67.13
2019-03-01T05:44:39.880Z,66.42
2019-03-01T05:47:10.531Z,66.34
2019-03-01T05:49:40.514Z,66.31
2019-03-01T05:52:11.033Z,65.10
2019-03-01T05:54:42.693Z,65.50
2019-03-01T05:57:13.463Z,64.59
2019-03-01T05:59:44.115Z,64.41
2019-03-01T06:02:26.918Z,64.36
2019-03-01T06:04:59.223Z,63.79
2019-03-01T06:07:49.513Z,63.36
2019-03-01T06:10:26.283Z,62.76
2019-03-01T06:13:16.569Z,62.41
2019-03-01T06:16:11.055Z,62.70
2019-03-01T06:19:01.053Z,63.25
2019-03-01T06:21:55.943Z,63.17
2019-03-01T06:24:46.027Z,63.31
2019-03-01T06:27:51.660Z,63.34
2019-03-01T06:30:51.656Z,62.96
2019-03-01T06:33:39.684Z,62.16
2019-03-01T06:36:27.824Z,62.29
2019-03-01T06:39:17.312Z,62.06
2019-03-01T06:41:53.569Z,62.05
2019-03-01T06:44:30.519Z,62.69
2019-03-01T06:47:25.376Z,62.54
2019-03-01T06:50:03.282Z,63.05
2019-03-01T06:52:33.934Z,63.33
2019-03-01T06:55:07.838Z,63.73
2019-03-01T06:57:38.498Z,63.66
2019-03-01T07:00:11.640Z,63.50
2019-03-01T07:02:43.497Z,63.68
2019-03-01T07:05:14.043Z,63.66
2019-03-01T07:07:43.997Z,63.32
2019-03-01T07:10:14.411Z,63.34
2019-03-01T07:12:45.165Z,63.20
2019-03-01T07:15:15.835Z,63.33
2019-03-01T07:17:46.691Z,62.63
2019-03-01T07:20:17.218Z,62.18
2019-03-01T07:22:47.299Z,61.92
2019-03-01T07:25:17.703Z,61.54
2019-03-01T07:27:47.789Z,61.34
2019-03-01T07:30:18.292Z,60.62
2019-03-01T07:32:48.163Z,60.21
2019-03-01T07:35:18.574Z,59.89
2019-03-01T07:37:48.655Z,59.62
2019-03-01T07:40:19.083Z,58.83
2019-03-01T07:42:48.935Z,58.61
2019-03-01T07:45:19.460Z,59.60
2019-03-01T07:47:50.009Z,58.62
2019-03-01T07:50:20.563Z,58.63
2019-03-01T07:52:51.090Z,58.61
2019-03-01T07:55:24.906Z,58.37
2019-03-01T07:57:54.643Z,58.10
2019-03-01T08:00:25.211Z,58.21
2019-03-01T08:02:55.875Z,58.59
2019-03-01T08:05:26.515Z,58.88
2019-03-01T08:08:02.607Z,58.88
2019-03-01T08:10:29.558Z,58.88
2019-03-01T08:13:00.108Z,58.81
2019-03-01T08:15:30.597Z,58.34
2019-03-01T08:18:04.622Z,58.48
2019-03-01T08:20:33.839Z,58.35
2019-03-01T08:23:04.553Z,58.07
2019-03-01T08:25:35.304Z,58.19
2019-03-01T08:28:05.266Z,57.56
2019-03-01T08:30:35.806Z,57.60
2019-03-01T08:33:07.589Z,57.66
2019-03-01T08:35:37.604Z,57.93
2019-03-01T08:38:14.802Z,58.27
2019-03-01T08:40:46.672Z,58.01
2019-03-01T08:43:17.929Z,58.05
2019-03-01T08:45:47.911Z,57.89
2019-03-01T08:48:18.314Z,57.35
2019-03-01T08:50:48.283Z,58.01
2019-03-01T08:53:18.693Z,57.19
2019-03-01T08:55:52.096Z,57.54
2019-03-01T08:58:22.472Z,56.79
2019-03-01T09:00:59.348Z,56.53
2019-03-01T09:03:27.233Z,56.22
2019-03-01T09:05:57.799Z,56.06
2019-03-01T09:08:27.877Z,56.58
2019-03-01T09:10:58.296Z,56.80
2019-03-01T09:13:28.144Z,56.70
2019-03-01T09:15:59.033Z,57.09
2019-03-01T09:18:46.641Z,56.21
2019-03-01T09:21:17.148Z,55.86
2019-03-01T09:23:47.915Z,56.35
2019-03-01T09:26:19.989Z,57.15
2019-03-01T09:28:51.034Z,57.44
2019-03-01T09:31:21.014Z,56.55
2019-03-01T09:33:53.765Z,56.47
2019-03-01T09:36:27.899Z,57.60
2019-03-01T09:38:58.462Z,58.74
2019-03-01T09:41:29.011Z,59.18
2019-03-01T09:44:02.718Z,59.63
2019-03-01T09:46:31.528Z,58.55
2019-03-01T09:49:01.612Z,57.76
2019-03-01T09:51:32.115Z,56.22
2019-03-01T09:54:02.682Z,56.49
2019-03-01T09:56:32.738Z,56.43
2019-03-01T09:59:03.369Z,55.73
2019-03-01T10:01:33.426Z,55.19
2019-03-01T10:04:03.738Z,55.21
2019-03-01T10:06:38.056Z,54.86
2019-03-01T10:09:09.440Z,55.28
2019-03-01T10:11:39.986Z,53.72
2019-03-01T10:14:09.861Z,53.95
2019-03-01T10:16:40.287Z,54.23
2019-03-01T10:19:10.135Z,54.04
2019-03-01T10:21:40.547Z,54.57
2019-03-01T10:24:11.200Z,55.17
2019-03-01T10:26:49.453Z,54.54
2019-03-01T10:29:21.706Z,53.58
2019-03-01T10:31:52.544Z,53.70
2019-03-01T10:34:23.127Z,53.83
2019-03-01T10:36:53.783Z,53.65
2019-03-01T10:39:24.433Z,53.86
2019-03-01T10:41:54.964Z,54.17
2019-03-01T10:44:24.945Z,55.02
2019-03-01T10:46:55.467Z,55.31
2019-03-01T10:49:26.001Z,56.55
2019-03-01T10:51:55.868Z,57.12
2019-03-01T10:54:27.710Z,58.09
2019-03-01T10:56:59.301Z,57.86
2019-03-01T10:59:30.055Z,58.35
2019-03-01T11:02:00.588Z,59.18
2019-03-01T11:04:30.558Z,59.36
2019-03-01T11:07:01.090Z,59.29
2019-03-01T11:09:31.641Z,58.98
2019-03-01T11:12:01.490Z,59.25
2019-03-01T11:14:32.019Z,58.82
2019-03-01T11:17:02.551Z,57.15
2019-03-01T11:19:32.586Z,57.18
2019-03-01T11:22:03.153Z,56.55
2019-03-01T11:24:33.689Z,56.14
2019-03-01T11:27:12.599Z,55.69
2019-03-01T11:29:35.627Z,55.30
2019-03-01T11:32:06.155Z,54.52
2019-03-01T11:34:36.320Z,53.17
2019-03-01T11:37:06.948Z,53.16
2019-03-01T11:39:36.928Z,54.77
2019-03-01T11:42:07.432Z,54.81
2019-03-01T11:44:37.517Z,55.08
2019-03-01T11:47:07.936Z,56.63
2019-03-01T11:49:37.888Z,56.83
2019-03-01T11:52:08.300Z,57.07
2019-03-01T11:54:38.972Z,56.04
2019-03-01T11:57:08.993Z,55.38
2019-03-01T11:59:39.358Z,55.26
2019-03-01T12:02:10.107Z,54.86
2019-03-01T12:04:40.063Z,55.28
2019-03-01T12:07:10.591Z,55.47
2019-03-01T12:09:40.437Z,55.55
2019-03-01T12:12:10.548Z,55.80
2019-03-01T12:14:40.532Z,55.89
2019-03-01T12:17:10.949Z,55.69
2019-03-01T12:19:40.912Z,54.80
2019-03-01T12:22:17.179Z,55.36
2019-03-01T12:24:43.313Z,55.41
2019-03-01T12:27:13.172Z,55.42
2019-03-01T12:29:43.694Z,55.05
2019-03-01T12:32:13.650Z,54.22
2019-03-01T12:34:44.063Z,54.47
2019-03-01T12:37:14.727Z,54.34
2019-03-01T12:39:44.693Z,53.75
2019-03-01T12:42:15.215Z,53.84
2019-03-01T12:44:45.178Z,53.78
2019-03-01T12:47:15.580Z,54.21
2019-03-01T12:49:46.129Z,53.80
2019-03-01T12:52:16.213Z,53.88
2019-03-01T12:54:46.617Z,54.34
2019-03-01T12:57:17.411Z,54.95
2019-03-01T12:59:47.348Z,55.15
2019-03-01T13:02:17.977Z,55.90
2019-03-01T13:04:49.911Z,55.79
2019-03-01T13:07:19.870Z,56.01
2019-03-01T13:09:49.953Z,56.48
2019-03-01T13:12:22.354Z,55.97
2019-03-01T13:14:52.663Z,56.25
2019-03-01T13:17:22.727Z,57.07
2019-03-01T13:19:53.259Z,56.96
2019-03-01T13:22:24.760Z,57.15
2019-03-01T13:24:58.684Z,57.82
2019-03-01T13:27:29.950Z,58.02
2019-03-01T13:30:02.233Z,58.05
2019-03-01T13:32:33.605Z,58.36
2019-03-01T13:35:07.141Z,58.29
2019-03-01T13:37:37.616Z,58.22
2019-03-01T13:40:09.024Z,58.17
2019-03-01T13:42:39.449Z,58.15
2019-03-01T13:45:11.938Z,57.99
2019-03-01T13:47:44.016Z,57.98
2019-03-01T13:50:19.443Z,58.00
2019-03-01T13:52:50.539Z,58.11
2019-03-01T13:55:23.756Z,57.89
2019-03-01T13:57:54.501Z,57.72
2019-03-01T14:00:25.485Z,57.56
2019-03-01T14:02:56.016Z,57.51
2019-03-01T14:05:26.749Z,57.64
2019-03-01T14:07:57.414Z,57.44
2019-03-01T14:10:29.502Z,57.15
2019-03-01T14:12:59.751Z,57.23
2019-03-01T14:15:30.494Z,57.50
2019-03-01T14:18:02.005Z,57.01
2019-03-01T14:20:32.516Z,57.11
2019-03-01T14:23:03.267Z,57.42
2019-03-01T14:25:34.021Z,57.69
2019-03-01T14:28:05.146Z,57.35
2019-03-01T14:30:36.348Z,57.74
2019-03-01T14:33:06.200Z,57.89
2019-03-01T14:35:36.740Z,58.01
2019-03-01T14:38:08.299Z,58.44
2019-03-01T14:40:38.733Z,59.09
2019-03-01T14:43:09.504Z,59.61
2019-03-01T14:45:41.777Z,60.15
2019-03-01T14:48:12.239Z,61.35
2019-03-01T14:50:42.099Z,61.89
2019-03-01T14:53:12.402Z,61.35
2019-03-01T14:55:44.110Z,60.90
2019-03-01T14:58:24.459Z,60.71
2019-03-01T15:01:13.416Z,60.98
2019-03-01T15:03:44.051Z,62.11
2019-03-01T15:06:15.544Z,62.02
2019-03-01T15:08:46.191Z,62.90
2019-03-01T15:11:16.946Z,63.91
2019-03-01T15:13:47.582Z,63.34
2019-03-01T15:16:17.569Z,63.51
2019-03-01T15:18:48.086Z,62.90
2019-03-01T15:21:18.819Z,61.74
2019-03-01T15:23:49.470Z,61.45
2019-03-01T15:26:23.066Z,60.75
2019-03-01T15:28:55.472Z,61.25
2019-03-01T15:31:26.047Z,61.02
2019-03-01T15:33:56.698Z,61.13
2019-03-01T15:36:27.452Z,61.13
2019-03-01T15:38:57.980Z,61.33
2019-03-01T15:41:28.064Z,61.90
2019-03-01T15:43:58.570Z,62.28
2019-03-01T15:46:31.180Z,62.29
2019-03-01T15:49:02.775Z,62.19
2019-03-01T15:51:34.661Z,62.52
2019-03-01T15:54:05.830Z,62.57
2019-03-01T15:56:39.483Z,62.52
2019-03-01T15:59:10.446Z,62.03
2019-03-01T16:01:43.763Z,62.43
2019-03-01T16:04:14.480Z,62.25
2019-03-01T16:06:44.967Z,62.29
2019-03-01T16:09:14.836Z,62.26
2019-03-01T16:11:45.061Z,62.18
2019-03-01T16:14:15.697Z,62.45
2019-03-01T16:16:49.169Z,61.49
2019-03-01T16:19:18.328Z,61.82
2019-03-01T16:21:48.308Z,61.82
2019-03-01T16:24:18.812Z,62.00
2019-03-01T16:26:48.887Z,62.21
2019-03-01T16:29:19.518Z,62.64
2019-03-01T16:31:50.158Z,63.02
2019-03-01T16:34:20.024Z,63.50
2019-03-01T16:36:52.070Z,63.83
2019-03-01T16:39:23.822Z,63.70
2019-03-01T16:41:54.722Z,63.79
2019-03-01T16:44:24.574Z,64.16
2019-03-01T16:46:55.209Z,63.97
2019-03-01T16:49:27.181Z,64.64
2019-03-01T16:51:57.227Z,65.03
2019-03-01T16:54:27.878Z,65.75
2019-03-01T16:56:57.739Z,65.98
2019-03-01T16:59:28.566Z,65.96
2019-03-01T17:01:59.017Z,65.84
2019-03-01T17:04:29.766Z,65.70
2019-03-01T17:07:00.523Z,65.38
2019-03-01T17:09:31.173Z,65.13
2019-03-01T17:12:01.824Z,65.12
2019-03-01T17:14:34.920Z,65.02
2019-03-01T17:17:03.743Z,64.44
2019-03-01T17:19:34.292Z,64.20
2019-03-01T17:22:04.356Z,64.23
2019-03-01T17:24:34.779Z,64.05
2019-03-01T17:27:05.756Z,63.52
2019-03-01T17:29:39.169Z,63.04
2019-03-01T17:32:08.452Z,62.72
2019-03-01T17:34:38.323Z,62.96
2019-03-01T17:37:08.954Z,62.44
2019-03-01T17:39:39.711Z,62.23
2019-03-01T17:42:09.561Z,62.17
2019-03-01T17:44:41.294Z,61.88
2019-03-01T17:47:12.372Z,62.21
2019-03-01T17:49:42.727Z,62.35
2019-03-01T17:52:13.275Z,62.37
2019-03-01T17:54:43.926Z,62.07
2019-03-01T17:57:13.991Z,61.86
2019-03-01T17:59:48.299Z,62.14
2019-03-01T18:02:19.238Z,62.24
2019-03-01T18:04:49.993Z,62.26
2019-03-01T18:07:23.730Z,61.98
2019-03-01T18:09:55.304Z,61.89
2019-03-01T18:12:25.034Z,62.12
2019-03-01T18:14:56.605Z,62.08
2019-03-01T18:17:27.257Z,62.11
2019-03-01T18:19:58.734Z,61.94
2019-03-01T18:22:29.177Z,62.08
2019-03-01T18:25:00.350Z,62.15
2019-03-01T18:27:30.785Z,62.07
2019-03-01T18:30:00.745Z,62.11
2019-03-01T18:32:31.150Z,61.78
2019-03-01T18:35:02.147Z,61.41
2019-03-01T18:37:35.744Z,61.28
2019-03-01T18:40:13.427Z,61.02
2019-03-01T18:42:42.657Z,61.03
2019-03-01T18:45:17.830Z,61.11
2019-03-01T18:47:48.167Z,60.63
2019-03-01T18:50:32.135Z,60.49
2019-03-01T18:53:04.150Z,60.46
2019-03-01T18:55:34.952Z,60.11
2019-03-01T18:58:05.016Z,59.97
2019-03-01T19:00:46.386Z,59.33
2019-03-01T19:03:17.121Z,59.42
2019-03-01T19:05:50.658Z,58.73
2019-03-01T19:08:20.996Z,58.87
2019-03-01T19:10:54.167Z,58.49
2019-03-01T19:13:34.330Z,58.58
2019-03-01T19:16:13.057Z,58.70
2019-03-01T19:18:44.554Z,58.93
2019-03-01T19:21:17.306Z,58.80
2019-03-01T19:23:47.509Z,58.92
2019-03-01T19:26:18.043Z,59.10
2019-03-01T19:28:48.012Z,59.25
2019-03-01T19:31:21.612Z,59.55
2019-03-01T19:33:50.508Z,59.66
2019-03-01T19:36:20.486Z,59.87
2019-03-01T19:38:50.993Z,59.77
2019-03-01T19:41:22.879Z,60.05
2019-03-01T19:43:57.415Z,60.42
2019-03-01T19:46:26.610Z,60.13
2019-03-01T19:48:57.785Z,59.94
2019-03-01T19:51:28.466Z,59.99
2019-03-01T19:54:01.054Z,59.72
2019-03-01T19:56:30.974Z,59.60
2019-03-01T19:59:01.522Z,59.28
2019-03-01T20:01:33.012Z,59.21
2019-03-01T20:04:03.868Z,59.11
2019-03-01T20:06:33.728Z,58.92
2019-03-01T20:09:05.341Z,59.06
2019-03-01T20:11:35.720Z,58.71
2019-03-01T20:14:06.354Z,58.90
2019-03-01T20:16:36.923Z,59.26
2019-03-01T20:19:07.471Z,58.87
2019-03-01T20:21:37.919Z,58.97
2019-03-01T20:24:07.982Z,59.01
2019-03-01T20:26:38.402Z,58.92
2019-03-01T20:29:08.364Z,59.30
2019-03-01T20:31:40.531Z,58.66
2019-03-01T20:34:10.850Z,58.42
2019-03-01T20:36:41.803Z,58.17
2019-03-01T20:39:15.643Z,57.53
2019-03-01T20:41:46.349Z,57.09
2019-03-01T20:44:18.623Z,56.95
2019-03-01T20:46:48.628Z,57.39
2019-03-01T20:49:18.588Z,56.96
2019-03-01T20:51:49.109Z,56.72
2019-03-01T20:54:21.950Z,57.22
2019-03-01T20:56:51.591Z,57.47
2019-03-01T20:59:23.010Z,57.02
2019-03-01T21:01:54.584Z,57.32
2019-03-01T21:04:25.335Z,57.28
2019-03-01T21:06:55.883Z,57.75
2019-03-01T21:09:26.051Z,57.21
2019-03-01T21:11:57.827Z,57.65
2019-03-01T21:14:28.645Z,57.68
2019-03-01T21:16:59.310Z,57.81
2019-03-01T21:19:29.274Z,57.77
2019-03-01T21:22:01.613Z,58.02
2019-03-01T21:24:32.178Z,58.12
2019-03-01T21:27:02.631Z,58.00
2019-03-01T21:29:32.598Z,58.08
2019-03-01T21:32:03.013Z,58.44
2019-03-01T21:34:34.881Z,58.63
2019-03-01T21:37:05.529Z,58.91
2019-03-01T21:39:35.510Z,59.03
2019-03-01T21:42:05.927Z,58.92
2019-03-01T21:44:35.788Z,59.29
2019-03-01T21:47:06.988Z,59.42
2019-03-01T21:49:38.291Z,59.43
2019-03-01T21:52:08.143Z,59.44
2019-03-01T21:54:38.678Z,59.80
2019-03-01T21:57:08.526Z,60.01
2019-03-01T21:59:39.055Z,60.13
2019-03-01T22:02:09.229Z,60.20
2019-03-01T22:04:39.732Z,60.04
2019-03-01T22:07:09.812Z,60.22
2019-03-01T22:09:40.332Z,60.56
2019-03-01T22:12:10.297Z,60.42
2019-03-01T22:14:40.821Z,60.12
2019-03-01T22:17:13.520Z,60.34
2019-03-01T22:19:42.532Z,60.64
2019-03-01T22:22:13.076Z,60.38
2019-03-01T22:24:42.941Z,60.23
2019-03-01T22:27:13.464Z,60.46
2019-03-01T22:29:47.166Z,60.74
2019-03-01T22:32:16.000Z,60.92
2019-03-01T22:34:45.855Z,60.86
2019-03-01T22:37:16.377Z,61.06
2019-03-01T22:39:48.426Z,61.22
2019-03-01T22:42:19.202Z,61.31
2019-03-01T22:44:49.286Z,61.03
2019-03-01T22:47:19.804Z,61.24
2019-03-01T22:49:49.764Z,61.40
2019-03-01T22:52:20.270Z,61.57
2019-03-01T22:54:50.925Z,61.71
2019-03-01T22:57:22.654Z,62.08
2019-03-01T22:59:52.960Z,62.41
2019-03-01T23:02:24.614Z,62.84
2019-03-01T23:04:55.491Z,63.04
2019-03-01T23:07:26.585Z,63.21
2019-03-01T23:09:57.918Z,63.62
2019-03-01T23:12:28.671Z,63.65
2019-03-01T23:15:02.935Z,63.17
2019-03-01T23:17:31.611Z,63.04
2019-03-01T23:20:02.366Z,63.08
2019-03-01T23:22:33.224Z,63.61
2019-03-01T23:25:04.266Z,63.67
2019-03-01T23:27:34.609Z,63.91
2019-03-01T23:30:07.100Z,64.20
2019-03-01T23:32:37.651Z,64.04
2019-03-01T23:35:08.524Z,63.46
2019-03-01T23:37:39.903Z,63.64
2019-03-01T23:40:10.321Z,63.58
2019-03-01T23:42:40.302Z,63.71
2019-03-01T23:45:13.801Z,63.43
2019-03-01T23:47:43.828Z,64.06
2019-03-01T23:50:13.690Z,64.30
2019-03-01T23:52:44.247Z,64.26
2019-03-01T23:55:15.609Z,64.35
2019-03-01T23:57:46.230Z,64.53
